This is the latest recevied weather packets stored in our database for station/object KE9ADS. If no packets are shown the sender has not sent any weather packets the latest 1 day(s).
| Time | Temp. | Humidity | Pressure | Rain* | Wind** | Luminosity | Snow |
|---|---|---|---|---|---|---|---|
| 1778093085 | 12.78° C | 36% | 1019.1 hPa | 0 mm | - | 294 W/m² | - |
| 1778091878 | 12.78° C | 35% | 1019 hPa | 0 mm | - | 831 W/m² | - |
| 1778090672 | 12.22° C | 39% | 1019.1 hPa | 0 mm | - | 878 W/m² | - |
| 1778088866 | 12.78° C | 36% | 1019 hPa | 0 mm | - | 827 W/m² | - |
| 1778087065 | 11.67° C | 38% | 1019.3 hPa | 0 mm | - | 804 W/m² | - |
| 1778085861 | 12.22° C | 36% | 1019.2 hPa | 0 mm | - | 572 W/m² | - |
| 1778084054 | 12.22° C | 38% | 1019.1 hPa | 0 mm | - | 636 W/m² | - |
| 1778083454 | 11.67° C | 37% | 1019.2 hPa | 0 mm | - | 413 W/m² | - |
| 1778082849 | 12.78° C | 35% | 1019.3 hPa | 0 mm | - | 711 W/m² | - |
| 1778080526 | 11.11° C | 39% | 1019.2 hPa | 0 mm | - | 620 W/m² | - |
| 1778079325 | 10° C | 41% | 1019.1 hPa | 0 mm | - | 461 W/m² | - |
| 1778078725 | 10° C | 42% | 1019.1 hPa | 0 mm | - | 345 W/m² | - |
| 1778078120 | 9.44° C | 42% | 1019.1 hPa | 0 mm | - | 461 W/m² | - |
| 1778075706 | 8.33° C | 50% | 1019.1 hPa | 0 mm | - | 158 W/m² | - |
| 1778073903 | 7.78° C | 54% | 1018.7 hPa | 0 mm | - | 131 W/m² | - |
| 1778071487 | 6.67° C | 59% | 1018.4 hPa | 0 mm | - | 80 W/m² | - |
| 1778070883 | 6.67° C | 59% | 1018.1 hPa | 0 mm | - | 79 W/m² | - |
| 1778069072 | 6.11° C | 62% | 1017.6 hPa | 0 mm | - | 54 W/m² | - |
| 1778066053 | 3.89° C | 74% | 1016.4 hPa | 0 mm | - | 13 W/m² | - |
| 1778065448 | 4.44° C | 74% | 1016 hPa | 0 mm | - | 5 W/m² | - |
| 1778062430 | 3.89° C | 78% | 1016.4 hPa | 0 mm | - | 0 W/m² | - |
| 1778060017 | 5.56° C | 72% | 1015.8 hPa | 0 mm | - | 0 W/m² | - |
| 1778059413 | 5° C | 72% | 1016 hPa | 0 mm | - | 0 W/m² | - |
| 1778058214 | 5.56° C | 72% | 1015.5 hPa | 0 mm | - | 0 W/m² | - |
| 1778057612 | 5.56° C | 70% | 1015.5 hPa | 0 mm | - | 0 W/m² | - |
* Rain latest hour (hover to see other rain measurements)
** Current wind speed in m/s (hover to see current wind gust speed)